sensor_id;sensor_type;location;lat;lon;timestamp;temperature;humidity
6841;DHT22;3458;53.678;14.080;2023-04-16T00:01:56;9.50;99.90
6841;DHT22;3458;53.678;14.080;2023-04-16T00:04:22;9.50;99.90
6841;DHT22;3458;53.678;14.080;2023-04-16T00:06:47;9.50;99.90
6841;DHT22;3458;53.678;14.080;2023-04-16T00:09:13;9.50;99.90
6841;DHT22;3458;53.678;14.080;2023-04-16T00:11:38;9.50;99.90
6841;DHT22;3458;53.678;14.080;2023-04-16T00:14:04;9.50;99.90
6841;DHT22;3458;53.678;14.080;2023-04-16T00:16:29;9.50;99.90
6841;DHT22;3458;53.678;14.080;2023-04-16T00:18:55;9.50;99.90
6841;DHT22;3458;53.678;14.080;2023-04-16T00:21:20;9.50;99.90
6841;DHT22;3458;53.678;14.080;2023-04-16T00:23:46;9.50;99.90
6841;DHT22;3458;53.678;14.080;2023-04-16T00:26:11;9.40;99.90
6841;DHT22;3458;53.678;14.080;2023-04-16T00:28:37;9.40;99.90
6841;DHT22;3458;53.678;14.080;2023-04-16T00:31:02;9.40;99.90
6841;DHT22;3458;53.678;14.080;2023-04-16T00:33:28;9.50;99.90
6841;DHT22;3458;53.678;14.080;2023-04-16T00:35:54;9.50;99.90
6841;DHT22;3458;53.678;14.080;2023-04-16T00:38:19;9.50;99.90
6841;DHT22;3458;53.678;14.080;2023-04-16T00:40:45;9.50;99.90
6841;DHT22;3458;53.678;14.080;2023-04-16T00:43:10;9.40;99.90
6841;DHT22;3458;53.678;14.080;2023-04-16T00:45:36;9.50;99.90
6841;DHT22;3458;53.678;14.080;2023-04-16T00:48:02;9.50;99.90
6841;DHT22;3458;53.678;14.080;2023-04-16T00:50:28;9.50;99.90
6841;DHT22;3458;53.678;14.080;2023-04-16T00:52:54;9.50;99.90
6841;DHT22;3458;53.678;14.080;2023-04-16T00:55:20;9.50;99.90
6841;DHT22;3458;53.678;14.080;2023-04-16T00:57:46;9.40;99.90
6841;DHT22;3458;53.678;14.080;2023-04-16T01:00:12;9.40;99.90
6841;DHT22;3458;53.678;14.080;2023-04-16T01:02:38;9.40;99.90
6841;DHT22;3458;53.678;14.080;2023-04-16T01:05:04;9.40;99.90
6841;DHT22;3458;53.678;14.080;2023-04-16T01:07:30;9.40;99.90
6841;DHT22;3458;53.678;14.080;2023-04-16T01:09:55;9.50;99.90
6841;DHT22;3458;53.678;14.080;2023-04-16T01:12:21;9.50;99.90
6841;DHT22;3458;53.678;14.080;2023-04-16T01:14:47;9.50;99.90
6841;DHT22;3458;53.678;14.080;2023-04-16T01:17:13;9.50;99.90
6841;DHT22;3458;53.678;14.080;2023-04-16T01:19:38;9.50;99.90
6841;DHT22;3458;53.678;14.080;2023-04-16T01:22:04;9.50;99.90
6841;DHT22;3458;53.678;14.080;2023-04-16T01:24:30;9.50;99.90
6841;DHT22;3458;53.678;14.080;2023-04-16T01:26:58;9.50;99.90
6841;DHT22;3458;53.678;14.080;2023-04-16T01:29:24;9.50;99.90
6841;DHT22;3458;53.678;14.080;2023-04-16T01:31:50;9.50;99.90
6841;DHT22;3458;53.678;14.080;2023-04-16T01:34:16;9.50;99.90
6841;DHT22;3458;53.678;14.080;2023-04-16T01:36:41;9.50;99.90
6841;DHT22;3458;53.678;14.080;2023-04-16T01:39:07;9.60;99.90
6841;DHT22;3458;53.678;14.080;2023-04-16T01:41:36;9.50;99.90
6841;DHT22;3458;53.678;14.080;2023-04-16T01:44:01;9.50;99.90
6841;DHT22;3458;53.678;14.080;2023-04-16T01:46:28;9.50;99.90
6841;DHT22;3458;53.678;14.080;2023-04-16T01:48:54;9.50;99.90
6841;DHT22;3458;53.678;14.080;2023-04-16T01:51:20;9.50;99.90
6841;DHT22;3458;53.678;14.080;2023-04-16T01:53:45;9.50;99.90
6841;DHT22;3458;53.678;14.080;2023-04-16T01:56:11;9.50;99.90
6841;DHT22;3458;53.678;14.080;2023-04-16T01:58:36;9.50;99.90
6841;DHT22;3458;53.678;14.080;2023-04-16T02:01:03;9.50;99.90
6841;DHT22;3458;53.678;14.080;2023-04-16T02:03:30;9.50;99.90
6841;DHT22;3458;53.678;14.080;2023-04-16T02:05:55;9.50;99.90
6841;DHT22;3458;53.678;14.080;2023-04-16T02:08:21;9.50;99.90
6841;DHT22;3458;53.678;14.080;2023-04-16T02:10:48;9.40;99.90
6841;DHT22;3458;53.678;14.080;2023-04-16T02:13:15;9.40;99.90
6841;DHT22;3458;53.678;14.080;2023-04-16T02:15:48;9.40;99.90
6841;DHT22;3458;53.678;14.080;2023-04-16T02:18:14;9.40;99.90
6841;DHT22;3458;53.678;14.080;2023-04-16T02:20:41;9.40;99.90
6841;DHT22;3458;53.678;14.080;2023-04-16T02:23:07;9.40;99.90
6841;DHT22;3458;53.678;14.080;2023-04-16T02:25:37;9.40;99.90
6841;DHT22;3458;53.678;14.080;2023-04-16T02:28:05;9.40;99.90
6841;DHT22;3458;53.678;14.080;2023-04-16T02:30:30;9.40;99.90
6841;DHT22;3458;53.678;14.080;2023-04-16T02:32:56;9.40;99.90
6841;DHT22;3458;53.678;14.080;2023-04-16T02:35:21;9.40;99.90
6841;DHT22;3458;53.678;14.080;2023-04-16T02:37:47;9.50;99.90
6841;DHT22;3458;53.678;14.080;2023-04-16T02:40:12;9.40;99.90
6841;DHT22;3458;53.678;14.080;2023-04-16T02:42:38;9.50;99.90
6841;DHT22;3458;53.678;14.080;2023-04-16T02:45:04;9.40;99.90
6841;DHT22;3458;53.678;14.080;2023-04-16T02:47:29;9.50;99.90
6841;DHT22;3458;53.678;14.080;2023-04-16T02:49:55;9.40;99.90
6841;DHT22;3458;53.678;14.080;2023-04-16T02:52:20;9.40;99.90
6841;DHT22;3458;53.678;14.080;2023-04-16T02:54:46;9.40;99.90
6841;DHT22;3458;53.678;14.080;2023-04-16T02:57:11;9.40;99.90
6841;DHT22;3458;53.678;14.080;2023-04-16T02:59:37;9.40;99.90
6841;DHT22;3458;53.678;14.080;2023-04-16T03:02:02;9.40;99.90
6841;DHT22;3458;53.678;14.080;2023-04-16T03:04:28;9.40;99.90
6841;DHT22;3458;53.678;14.080;2023-04-16T03:06:53;9.40;99.90
6841;DHT22;3458;53.678;14.080;2023-04-16T03:09:19;9.40;99.90
6841;DHT22;3458;53.678;14.080;2023-04-16T03:11:47;9.40;99.90
6841;DHT22;3458;53.678;14.080;2023-04-16T03:14:13;9.40;99.90
6841;DHT22;3458;53.678;14.080;2023-04-16T03:16:38;9.40;99.90
6841;DHT22;3458;53.678;14.080;2023-04-16T03:19:04;9.40;99.90
6841;DHT22;3458;53.678;14.080;2023-04-16T03:21:29;9.40;99.90
6841;DHT22;3458;53.678;14.080;2023-04-16T03:23:55;9.40;99.90
6841;DHT22;3458;53.678;14.080;2023-04-16T03:26:21;9.30;99.90
6841;DHT22;3458;53.678;14.080;2023-04-16T03:28:47;9.40;99.90
6841;DHT22;3458;53.678;14.080;2023-04-16T03:31:12;9.30;99.90
6841;DHT22;3458;53.678;14.080;2023-04-16T03:33:37;9.30;99.90
6841;DHT22;3458;53.678;14.080;2023-04-16T03:36:03;9.30;99.90
6841;DHT22;3458;53.678;14.080;2023-04-16T03:38:29;9.30;99.90
6841;DHT22;3458;53.678;14.080;2023-04-16T03:40:54;9.30;99.90
6841;DHT22;3458;53.678;14.080;2023-04-16T03:43:20;9.30;99.90
6841;DHT22;3458;53.678;14.080;2023-04-16T03:45:46;9.30;99.90
6841;DHT22;3458;53.678;14.080;2023-04-16T03:48:12;9.30;99.90
6841;DHT22;3458;53.678;14.080;2023-04-16T03:50:37;9.30;99.90
6841;DHT22;3458;53.678;14.080;2023-04-16T03:53:03;9.30;99.90
6841;DHT22;3458;53.678;14.080;2023-04-16T03:55:29;9.40;99.90
6841;DHT22;3458;53.678;14.080;2023-04-16T03:57:54;9.40;99.90
6841;DHT22;3458;53.678;14.080;2023-04-16T04:00:20;9.40;99.90
6841;DHT22;3458;53.678;14.080;2023-04-16T04:02:46;9.40;99.90
6841;DHT22;3458;53.678;14.080;2023-04-16T04:05:11;9.30;99.90
6841;DHT22;3458;53.678;14.080;2023-04-16T04:07:37;9.30;99.90
6841;DHT22;3458;53.678;14.080;2023-04-16T04:10:02;9.30;99.90
6841;DHT22;3458;53.678;14.080;2023-04-16T04:12:28;9.40;99.90
6841;DHT22;3458;53.678;14.080;2023-04-16T04:14:53;9.30;99.90
6841;DHT22;3458;53.678;14.080;2023-04-16T04:17:19;9.30;99.90
6841;DHT22;3458;53.678;14.080;2023-04-16T04:19:44;9.30;99.90
6841;DHT22;3458;53.678;14.080;2023-04-16T04:22:10;9.30;99.90
6841;DHT22;3458;53.678;14.080;2023-04-16T04:24:35;9.40;99.90
6841;DHT22;3458;53.678;14.080;2023-04-16T04:27:01;9.30;99.90
6841;DHT22;3458;53.678;14.080;2023-04-16T04:29:27;9.30;99.90
6841;DHT22;3458;53.678;14.080;2023-04-16T04:31:52;9.30;99.90
6841;DHT22;3458;53.678;14.080;2023-04-16T04:34:19;9.30;99.90
6841;DHT22;3458;53.678;14.080;2023-04-16T04:36:44;9.30;99.90
6841;DHT22;3458;53.678;14.080;2023-04-16T04:39:10;9.30;99.90
6841;DHT22;3458;53.678;14.080;2023-04-16T04:41:36;9.30;99.90
6841;DHT22;3458;53.678;14.080;2023-04-16T04:44:01;9.30;99.90
6841;DHT22;3458;53.678;14.080;2023-04-16T04:46:27;9.30;99.90
6841;DHT22;3458;53.678;14.080;2023-04-16T04:48:52;9.30;99.90
6841;DHT22;3458;53.678;14.080;2023-04-16T04:51:17;9.30;99.90
6841;DHT22;3458;53.678;14.080;2023-04-16T04:53:43;9.30;99.90
6841;DHT22;3458;53.678;14.080;2023-04-16T04:56:08;9.30;99.90
6841;DHT22;3458;53.678;14.080;2023-04-16T04:58:34;9.40;99.90
6841;DHT22;3458;53.678;14.080;2023-04-16T05:00:59;9.40;99.90
6841;DHT22;3458;53.678;14.080;2023-04-16T05:03:25;9.40;99.90
6841;DHT22;3458;53.678;14.080;2023-04-16T05:05:50;9.40;99.90
6841;DHT22;3458;53.678;14.080;2023-04-16T05:08:16;9.40;99.90
6841;DHT22;3458;53.678;14.080;2023-04-16T05:10:41;9.40;99.90
6841;DHT22;3458;53.678;14.080;2023-04-16T05:13:07;9.40;99.90
6841;DHT22;3458;53.678;14.080;2023-04-16T05:15:32;9.50;99.90
6841;DHT22;3458;53.678;14.080;2023-04-16T05:17:58;9.50;99.90
6841;DHT22;3458;53.678;14.080;2023-04-16T05:20:23;9.50;99.90
6841;DHT22;3458;53.678;14.080;2023-04-16T05:22:49;9.60;99.90
6841;DHT22;3458;53.678;14.080;2023-04-16T05:25:15;9.50;99.90
6841;DHT22;3458;53.678;14.080;2023-04-16T05:27:42;9.50;99.90
6841;DHT22;3458;53.678;14.080;2023-04-16T05:30:08;9.60;99.90
6841;DHT22;3458;53.678;14.080;2023-04-16T05:32:33;9.60;99.90
6841;DHT22;3458;53.678;14.080;2023-04-16T05:34:59;9.60;99.90
6841;DHT22;3458;53.678;14.080;2023-04-16T05:37:25;9.60;99.90
6841;DHT22;3458;53.678;14.080;2023-04-16T05:39:50;9.70;99.90
6841;DHT22;3458;53.678;14.080;2023-04-16T05:42:16;9.70;99.90
6841;DHT22;3458;53.678;14.080;2023-04-16T05:44:41;9.70;99.90
6841;DHT22;3458;53.678;14.080;2023-04-16T05:47:07;9.70;99.90
6841;DHT22;3458;53.678;14.080;2023-04-16T05:49:34;9.80;99.90
6841;DHT22;3458;53.678;14.080;2023-04-16T05:52:02;9.80;99.90
6841;DHT22;3458;53.678;14.080;2023-04-16T05:54:27;9.80;99.90
6841;DHT22;3458;53.678;14.080;2023-04-16T05:56:53;9.90;99.90
6841;DHT22;3458;53.678;14.080;2023-04-16T05:59:18;9.90;99.90
6841;DHT22;3458;53.678;14.080;2023-04-16T06:01:44;10.00;99.90
6841;DHT22;3458;53.678;14.080;2023-04-16T06:04:09;10.00;99.90
6841;DHT22;3458;53.678;14.080;2023-04-16T06:06:35;10.00;99.90
6841;DHT22;3458;53.678;14.080;2023-04-16T06:09:02;9.90;99.90
6841;DHT22;3458;53.678;14.080;2023-04-16T06:11:28;9.80;99.90
6841;DHT22;3458;53.678;14.080;2023-04-16T06:13:54;9.80;99.90
6841;DHT22;3458;53.678;14.080;2023-04-16T06:16:20;9.80;99.90
6841;DHT22;3458;53.678;14.080;2023-04-16T06:18:46;9.80;99.90
6841;DHT22;3458;53.678;14.080;2023-04-16T06:21:11;9.80;99.90
6841;DHT22;3458;53.678;14.080;2023-04-16T06:23:37;9.80;99.90
6841;DHT22;3458;53.678;14.080;2023-04-16T06:26:03;9.90;99.90
6841;DHT22;3458;53.678;14.080;2023-04-16T06:28:29;10.00;99.90
6841;DHT22;3458;53.678;14.080;2023-04-16T06:30:54;10.10;99.90
6841;DHT22;3458;53.678;14.080;2023-04-16T06:33:20;10.10;99.90
6841;DHT22;3458;53.678;14.080;2023-04-16T06:35:45;10.00;99.90
6841;DHT22;3458;53.678;14.080;2023-04-16T06:38:10;10.10;99.90
6841;DHT22;3458;53.678;14.080;2023-04-16T06:40:36;10.10;99.90
6841;DHT22;3458;53.678;14.080;2023-04-16T06:43:02;10.10;99.90
6841;DHT22;3458;53.678;14.080;2023-04-16T06:45:27;10.10;99.90
6841;DHT22;3458;53.678;14.080;2023-04-16T06:47:53;10.20;99.90
6841;DHT22;3458;53.678;14.080;2023-04-16T06:50:18;10.20;99.90
6841;DHT22;3458;53.678;14.080;2023-04-16T06:52:44;10.30;99.90
6841;DHT22;3458;53.678;14.080;2023-04-16T06:55:10;10.40;99.90
6841;DHT22;3458;53.678;14.080;2023-04-16T06:57:35;10.50;99.90
6841;DHT22;3458;53.678;14.080;2023-04-16T07:00:02;10.50;99.90
6841;DHT22;3458;53.678;14.080;2023-04-16T07:02:28;10.50;99.90
6841;DHT22;3458;53.678;14.080;2023-04-16T07:04:56;10.50;99.90
6841;DHT22;3458;53.678;14.080;2023-04-16T07:07:21;10.50;99.90
6841;DHT22;3458;53.678;14.080;2023-04-16T07:09:47;10.50;99.90
6841;DHT22;3458;53.678;14.080;2023-04-16T07:12:12;10.50;99.90
6841;DHT22;3458;53.678;14.080;2023-04-16T07:14:38;10.50;99.90
6841;DHT22;3458;53.678;14.080;2023-04-16T07:17:03;10.50;99.90
6841;DHT22;3458;53.678;14.080;2023-04-16T07:19:29;10.60;99.90
6841;DHT22;3458;53.678;14.080;2023-04-16T07:21:57;10.60;99.90
6841;DHT22;3458;53.678;14.080;2023-04-16T07:24:23;10.60;99.90
6841;DHT22;3458;53.678;14.080;2023-04-16T07:26:48;10.60;99.90
6841;DHT22;3458;53.678;14.080;2023-04-16T07:29:14;10.60;99.90
6841;DHT22;3458;53.678;14.080;2023-04-16T07:31:40;10.50;99.90
6841;DHT22;3458;53.678;14.080;2023-04-16T07:34:05;10.50;99.90
6841;DHT22;3458;53.678;14.080;2023-04-16T07:36:31;10.50;99.90
6841;DHT22;3458;53.678;14.080;2023-04-16T07:38:56;10.40;99.90
6841;DHT22;3458;53.678;14.080;2023-04-16T07:41:22;10.40;99.90
6841;DHT22;3458;53.678;14.080;2023-04-16T07:43:47;10.50;99.90
6841;DHT22;3458;53.678;14.080;2023-04-16T07:46:13;10.60;99.90
6841;DHT22;3458;53.678;14.080;2023-04-16T07:48:38;10.60;99.90
6841;DHT22;3458;53.678;14.080;2023-04-16T07:51:04;10.60;99.90
6841;DHT22;3458;53.678;14.080;2023-04-16T07:53:30;10.60;99.90
6841;DHT22;3458;53.678;14.080;2023-04-16T07:55:58;10.60;99.90
6841;DHT22;3458;53.678;14.080;2023-04-16T07:58:23;10.60;99.90
6841;DHT22;3458;53.678;14.080;2023-04-16T08:00:49;10.60;99.90
6841;DHT22;3458;53.678;14.080;2023-04-16T08:03:15;10.70;99.90
6841;DHT22;3458;53.678;14.080;2023-04-16T08:05:41;10.70;99.90
6841;DHT22;3458;53.678;14.080;2023-04-16T08:08:06;10.80;99.90
6841;DHT22;3458;53.678;14.080;2023-04-16T08:10:32;10.80;99.90
6841;DHT22;3458;53.678;14.080;2023-04-16T08:12:59;10.80;99.90
6841;DHT22;3458;53.678;14.080;2023-04-16T08:15:25;10.70;99.90
6841;DHT22;3458;53.678;14.080;2023-04-16T08:17:51;10.80;99.90
6841;DHT22;3458;53.678;14.080;2023-04-16T08:20:17;10.90;99.90
6841;DHT22;3458;53.678;14.080;2023-04-16T08:22:44;11.00;99.90
6841;DHT22;3458;53.678;14.080;2023-04-16T08:25:09;11.10;99.90
6841;DHT22;3458;53.678;14.080;2023-04-16T08:27:35;11.20;99.90
6841;DHT22;3458;53.678;14.080;2023-04-16T08:30:01;11.30;99.90
6841;DHT22;3458;53.678;14.080;2023-04-16T08:32:26;11.40;99.90
6841;DHT22;3458;53.678;14.080;2023-04-16T08:34:52;11.50;99.90
6841;DHT22;3458;53.678;14.080;2023-04-16T08:37:17;11.60;99.90
6841;DHT22;3458;53.678;14.080;2023-04-16T08:39:43;11.60;99.90
6841;DHT22;3458;53.678;14.080;2023-04-16T08:42:17;11.70;99.90
6841;DHT22;3458;53.678;14.080;2023-04-16T08:44:47;11.70;99.90
6841;DHT22;3458;53.678;14.080;2023-04-16T08:47:15;11.80;99.90
6841;DHT22;3458;53.678;14.080;2023-04-16T08:49:44;11.80;99.90
6841;DHT22;3458;53.678;14.080;2023-04-16T08:52:15;12.00;99.90
6841;DHT22;3458;53.678;14.080;2023-04-16T08:54:57;12.10;99.90
6841;DHT22;3458;53.678;14.080;2023-04-16T08:57:37;12.20;99.90
6841;DHT22;3458;53.678;14.080;2023-04-16T09:00:06;12.30;99.90
6841;DHT22;3458;53.678;14.080;2023-04-16T09:02:32;12.30;99.90
6841;DHT22;3458;53.678;14.080;2023-04-16T09:04:59;12.40;99.90
6841;DHT22;3458;53.678;14.080;2023-04-16T09:07:26;12.30;99.90
6841;DHT22;3458;53.678;14.080;2023-04-16T09:09:53;12.30;99.90
6841;DHT22;3458;53.678;14.080;2023-04-16T09:12:22;12.20;99.90
6841;DHT22;3458;53.678;14.080;2023-04-16T09:14:51;12.20;99.90
6841;DHT22;3458;53.678;14.080;2023-04-16T09:17:20;12.20;99.90
6841;DHT22;3458;53.678;14.080;2023-04-16T09:19:45;12.30;99.90
6841;DHT22;3458;53.678;14.080;2023-04-16T09:22:11;12.20;99.90
6841;DHT22;3458;53.678;14.080;2023-04-16T09:24:37;12.20;99.90
6841;DHT22;3458;53.678;14.080;2023-04-16T09:27:03;12.30;99.90
6841;DHT22;3458;53.678;14.080;2023-04-16T09:29:39;12.20;99.90
6841;DHT22;3458;53.678;14.080;2023-04-16T09:32:07;12.20;99.90
6841;DHT22;3458;53.678;14.080;2023-04-16T09:34:33;12.30;99.90
6841;DHT22;3458;53.678;14.080;2023-04-16T09:37:15;12.30;99.90
6841;DHT22;3458;53.678;14.080;2023-04-16T09:39:42;12.30;99.90
6841;DHT22;3458;53.678;14.080;2023-04-16T09:42:08;12.30;99.90
6841;DHT22;3458;53.678;14.080;2023-04-16T09:44:37;12.40;99.90
6841;DHT22;3458;53.678;14.080;2023-04-16T09:47:07;12.50;99.90
6841;DHT22;3458;53.678;14.080;2023-04-16T09:49:43;12.40;99.90
6841;DHT22;3458;53.678;14.080;2023-04-16T09:52:17;12.30;99.90
6841;DHT22;3458;53.678;14.080;2023-04-16T09:54:47;12.30;99.90
6841;DHT22;3458;53.678;14.080;2023-04-16T09:57:13;12.40;99.90
6841;DHT22;3458;53.678;14.080;2023-04-16T09:59:38;12.40;99.90
6841;DHT22;3458;53.678;14.080;2023-04-16T10:02:07;12.50;99.90
6841;DHT22;3458;53.678;14.080;2023-04-16T10:04:45;12.50;99.90
6841;DHT22;3458;53.678;14.080;2023-04-16T10:07:10;12.50;99.90
6841;DHT22;3458;53.678;14.080;2023-04-16T10:09:38;12.60;99.90
6841;DHT22;3458;53.678;14.080;2023-04-16T10:12:04;12.70;99.90
6841;DHT22;3458;53.678;14.080;2023-04-16T10:14:31;12.80;99.90
6841;DHT22;3458;53.678;14.080;2023-04-16T10:16:56;12.90;99.90
6841;DHT22;3458;53.678;14.080;2023-04-16T10:19:26;13.00;99.90
6841;DHT22;3458;53.678;14.080;2023-04-16T10:21:53;13.10;99.90
6841;DHT22;3458;53.678;14.080;2023-04-16T10:24:19;13.10;99.90
6841;DHT22;3458;53.678;14.080;2023-04-16T10:26:45;13.20;99.90
6841;DHT22;3458;53.678;14.080;2023-04-16T10:29:11;13.20;99.90
6841;DHT22;3458;53.678;14.080;2023-04-16T10:31:38;13.30;99.90
6841;DHT22;3458;53.678;14.080;2023-04-16T10:34:05;13.40;99.90
6841;DHT22;3458;53.678;14.080;2023-04-16T10:36:35;13.40;99.90
6841;DHT22;3458;53.678;14.080;2023-04-16T10:39:01;13.40;99.90
6841;DHT22;3458;53.678;14.080;2023-04-16T10:41:26;13.50;99.90
6841;DHT22;3458;53.678;14.080;2023-04-16T10:43:54;13.50;99.90
6841;DHT22;3458;53.678;14.080;2023-04-16T10:46:36;13.60;99.90
6841;DHT22;3458;53.678;14.080;2023-04-16T10:49:16;13.60;99.90
6841;DHT22;3458;53.678;14.080;2023-04-16T10:51:55;13.60;99.90
6841;DHT22;3458;53.678;14.080;2023-04-16T10:54:30;13.60;99.90
6841;DHT22;3458;53.678;14.080;2023-04-16T10:56:58;13.80;99.90
6841;DHT22;3458;53.678;14.080;2023-04-16T10:59:24;13.90;99.90
6841;DHT22;3458;53.678;14.080;2023-04-16T11:01:52;14.00;99.90
6841;DHT22;3458;53.678;14.080;2023-04-16T11:09:58;13.50;99.90
6841;DHT22;3458;53.678;14.080;2023-04-16T11:12:34;13.60;99.90
6841;DHT22;3458;53.678;14.080;2023-04-16T11:15:10;13.70;99.90
6841;DHT22;3458;53.678;14.080;2023-04-16T11:20:07;14.10;99.90
6841;DHT22;3458;53.678;14.080;2023-04-16T11:22:37;14.10;99.90
6841;DHT22;3458;53.678;14.080;2023-04-16T11:25:03;14.20;99.90
6841;DHT22;3458;53.678;14.080;2023-04-16T11:27:29;14.30;99.90
6841;DHT22;3458;53.678;14.080;2023-04-16T11:30:05;14.50;99.90
6841;DHT22;3458;53.678;14.080;2023-04-16T11:32:35;14.70;99.90
6841;DHT22;3458;53.678;14.080;2023-04-16T11:35:02;14.70;99.90
6841;DHT22;3458;53.678;14.080;2023-04-16T11:37:35;14.60;99.90
6841;DHT22;3458;53.678;14.080;2023-04-16T11:40:02;14.70;99.90
6841;DHT22;3458;53.678;14.080;2023-04-16T11:42:32;14.40;99.90
6841;DHT22;3458;53.678;14.080;2023-04-16T11:44:59;14.20;99.90
6841;DHT22;3458;53.678;14.080;2023-04-16T11:47:29;14.10;99.90
6841;DHT22;3458;53.678;14.080;2023-04-16T11:49:55;13.90;99.90
6841;DHT22;3458;53.678;14.080;2023-04-16T11:52:28;13.80;99.90
6841;DHT22;3458;53.678;14.080;2023-04-16T11:54:54;13.90;99.90
6841;DHT22;3458;53.678;14.080;2023-04-16T11:57:30;14.00;99.90
6841;DHT22;3458;53.678;14.080;2023-04-16T11:59:57;14.20;99.90
6841;DHT22;3458;53.678;14.080;2023-04-16T12:02:45;14.60;99.90
6841;DHT22;3458;53.678;14.080;2023-04-16T12:05:28;14.80;99.90
6841;DHT22;3458;53.678;14.080;2023-04-16T12:07:55;15.00;99.90
6841;DHT22;3458;53.678;14.080;2023-04-16T12:10:21;15.10;99.90
6841;DHT22;3458;53.678;14.080;2023-04-16T12:12:46;15.00;99.90
6841;DHT22;3458;53.678;14.080;2023-04-16T12:15:12;15.00;99.90
6841;DHT22;3458;53.678;14.080;2023-04-16T12:17:37;15.00;99.90
6841;DHT22;3458;53.678;14.080;2023-04-16T12:20:10;14.90;99.90
6841;DHT22;3458;53.678;14.080;2023-04-16T12:22:43;14.90;99.90
6841;DHT22;3458;53.678;14.080;2023-04-16T12:25:13;14.90;99.90
6841;DHT22;3458;53.678;14.080;2023-04-16T12:27:46;14.90;99.90
6841;DHT22;3458;53.678;14.080;2023-04-16T12:30:14;14.80;99.90
6841;DHT22;3458;53.678;14.080;2023-04-16T12:32:40;14.80;99.90
6841;DHT22;3458;53.678;14.080;2023-04-16T12:35:06;14.90;99.90
6841;DHT22;3458;53.678;14.080;2023-04-16T12:37:33;15.00;99.90
6841;DHT22;3458;53.678;14.080;2023-04-16T12:39:59;15.10;99.90
6841;DHT22;3458;53.678;14.080;2023-04-16T12:42:25;15.10;99.90
6841;DHT22;3458;53.678;14.080;2023-04-16T12:44:50;15.10;99.90
6841;DHT22;3458;53.678;14.080;2023-04-16T12:47:16;15.10;99.90
6841;DHT22;3458;53.678;14.080;2023-04-16T12:49:41;15.10;99.90
6841;DHT22;3458;53.678;14.080;2023-04-16T12:52:08;15.00;99.90
6841;DHT22;3458;53.678;14.080;2023-04-16T12:54:34;15.00;99.90
6841;DHT22;3458;53.678;14.080;2023-04-16T12:56:59;15.10;99.90
6841;DHT22;3458;53.678;14.080;2023-04-16T12:59:25;15.10;99.90
6841;DHT22;3458;53.678;14.080;2023-04-16T13:01:50;15.30;99.90
6841;DHT22;3458;53.678;14.080;2023-04-16T13:04:16;15.60;99.90
6841;DHT22;3458;53.678;14.080;2023-04-16T13:06:43;15.40;99.90
6841;DHT22;3458;53.678;14.080;2023-04-16T13:09:09;15.30;99.90
6841;DHT22;3458;53.678;14.080;2023-04-16T13:11:35;15.10;99.90
6841;DHT22;3458;53.678;14.080;2023-04-16T13:14:01;14.80;99.90
6841;DHT22;3458;53.678;14.080;2023-04-16T13:16:26;14.70;99.90
6841;DHT22;3458;53.678;14.080;2023-04-16T13:18:52;14.80;99.90
6841;DHT22;3458;53.678;14.080;2023-04-16T13:21:17;14.70;99.90
6841;DHT22;3458;53.678;14.080;2023-04-16T13:23:43;14.60;99.90
6841;DHT22;3458;53.678;14.080;2023-04-16T13:26:08;14.50;99.90
6841;DHT22;3458;53.678;14.080;2023-04-16T13:28:34;14.70;99.90
6841;DHT22;3458;53.678;14.080;2023-04-16T13:30:59;15.00;99.90
6841;DHT22;3458;53.678;14.080;2023-04-16T13:33:25;15.10;99.90
6841;DHT22;3458;53.678;14.080;2023-04-16T13:35:51;15.30;99.90
6841;DHT22;3458;53.678;14.080;2023-04-16T13:38:17;15.20;99.90
6841;DHT22;3458;53.678;14.080;2023-04-16T13:40:42;15.40;99.90
6841;DHT22;3458;53.678;14.080;2023-04-16T13:43:08;15.50;99.90
6841;DHT22;3458;53.678;14.080;2023-04-16T13:45:33;15.60;99.90
6841;DHT22;3458;53.678;14.080;2023-04-16T13:47:59;15.90;99.90
6841;DHT22;3458;53.678;14.080;2023-04-16T13:50:25;16.20;99.90
6841;DHT22;3458;53.678;14.080;2023-04-16T13:52:50;16.00;99.90
6841;DHT22;3458;53.678;14.080;2023-04-16T13:55:16;15.70;99.90
6841;DHT22;3458;53.678;14.080;2023-04-16T13:57:44;15.30;99.90
6841;DHT22;3458;53.678;14.080;2023-04-16T14:00:10;15.50;99.90
6841;DHT22;3458;53.678;14.080;2023-04-16T14:02:36;15.80;99.90
6841;DHT22;3458;53.678;14.080;2023-04-16T14:05:02;15.80;99.90
6841;DHT22;3458;53.678;14.080;2023-04-16T14:07:27;15.60;99.90
6841;DHT22;3458;53.678;14.080;2023-04-16T14:09:53;15.30;99.90
6841;DHT22;3458;53.678;14.080;2023-04-16T14:12:19;15.00;99.90
6841;DHT22;3458;53.678;14.080;2023-04-16T14:14:44;14.90;99.90
6841;DHT22;3458;53.678;14.080;2023-04-16T14:17:10;15.00;99.90
6841;DHT22;3458;53.678;14.080;2023-04-16T14:19:35;15.60;99.90
6841;DHT22;3458;53.678;14.080;2023-04-16T14:22:01;16.00;99.90
6841;DHT22;3458;53.678;14.080;2023-04-16T14:24:26;15.70;99.90
6841;DHT22;3458;53.678;14.080;2023-04-16T14:26:52;15.20;99.90
6841;DHT22;3458;53.678;14.080;2023-04-16T14:29:17;14.70;99.90
6841;DHT22;3458;53.678;14.080;2023-04-16T14:31:43;14.40;99.90
6841;DHT22;3458;53.678;14.080;2023-04-16T14:34:08;14.60;99.90
6841;DHT22;3458;53.678;14.080;2023-04-16T14:36:35;14.50;99.90
6841;DHT22;3458;53.678;14.080;2023-04-16T14:39:00;14.50;99.90
6841;DHT22;3458;53.678;14.080;2023-04-16T14:41:26;14.70;99.90
6841;DHT22;3458;53.678;14.080;2023-04-16T14:43:51;15.20;99.90
6841;DHT22;3458;53.678;14.080;2023-04-16T14:46:17;15.50;99.90
6841;DHT22;3458;53.678;14.080;2023-04-16T14:48:43;15.40;99.90
6841;DHT22;3458;53.678;14.080;2023-04-16T14:51:09;15.60;99.90
6841;DHT22;3458;53.678;14.080;2023-04-16T14:53:36;16.20;99.90
6841;DHT22;3458;53.678;14.080;2023-04-16T14:56:02;16.00;99.90
6841;DHT22;3458;53.678;14.080;2023-04-16T14:58:28;15.40;99.90
6841;DHT22;3458;53.678;14.080;2023-04-16T15:00:54;15.10;99.90
6841;DHT22;3458;53.678;14.080;2023-04-16T15:03:19;14.90;99.90
6841;DHT22;3458;53.678;14.080;2023-04-16T15:05:45;14.80;99.90
6841;DHT22;3458;53.678;14.080;2023-04-16T15:08:15;15.00;99.90
6841;DHT22;3458;53.678;14.080;2023-04-16T15:10:40;14.80;99.90
6841;DHT22;3458;53.678;14.080;2023-04-16T15:13:07;14.70;99.90
6841;DHT22;3458;53.678;14.080;2023-04-16T15:15:33;14.50;99.90
6841;DHT22;3458;53.678;14.080;2023-04-16T15:17:58;14.00;99.90
6841;DHT22;3458;53.678;14.080;2023-04-16T15:20:24;13.90;99.90
6841;DHT22;3458;53.678;14.080;2023-04-16T15:22:50;13.70;99.90
6841;DHT22;3458;53.678;14.080;2023-04-16T15:25:15;13.50;99.90
6841;DHT22;3458;53.678;14.080;2023-04-16T15:27:41;13.20;99.90
6841;DHT22;3458;53.678;14.080;2023-04-16T15:30:07;13.10;99.90
6841;DHT22;3458;53.678;14.080;2023-04-16T15:32:32;12.90;99.90
6841;DHT22;3458;53.678;14.080;2023-04-16T15:34:58;12.70;99.90
6841;DHT22;3458;53.678;14.080;2023-04-16T15:37:24;12.60;99.90
6841;DHT22;3458;53.678;14.080;2023-04-16T15:39:50;12.70;99.90
6841;DHT22;3458;53.678;14.080;2023-04-16T15:42:15;12.80;99.90
6841;DHT22;3458;53.678;14.080;2023-04-16T15:44:41;12.90;99.90
6841;DHT22;3458;53.678;14.080;2023-04-16T15:47:06;12.90;99.90
6841;DHT22;3458;53.678;14.080;2023-04-16T15:49:33;12.90;99.90
6841;DHT22;3458;53.678;14.080;2023-04-16T15:51:59;13.00;99.90
6841;DHT22;3458;53.678;14.080;2023-04-16T15:54:25;13.10;99.90
6841;DHT22;3458;53.678;14.080;2023-04-16T15:56:51;13.20;99.90